Time;durP1;ratioP1;P1;durP2;ratioP2;P2;SDS_P1;SDS_P2;PMS_P1;PMS_P2;Temp;Humidity;BMP_temperature;BMP_pressure;BME280_temperature;BME280_humidity;BME280_pressure;Samples;Min_cycle;Max_cycle;Signal;HPM_P1;HPM_P2
2022/10/22 00:02:10;;;;;;;9.02;5.80;;;12.10;99.90;;;;;;6270123;22;20004;-76
2022/10/22 00:04:35;;;;;;;7.32;5.28;;;12.00;99.90;;;;;;6269888;22;20011;-77
2022/10/22 00:07:01;;;;;;;8.18;5.57;;;12.00;99.90;;;;;;6271711;22;20000;-77
2022/10/22 00:09:27;;;;;;;5.80;5.20;;;12.00;99.90;;;;;;6271906;22;20004;-77
2022/10/22 00:11:52;;;;;;;6.60;5.72;;;12.00;99.90;;;;;;6270913;22;20410;-77
2022/10/22 00:14:18;;;;;;;9.88;6.32;;;11.90;99.90;;;;;;6271789;22;20012;-77
2022/10/22 00:16:44;;;;;;;7.60;6.15;;;12.00;99.90;;;;;;6271543;22;20057;-78
2022/10/22 00:19:10;;;;;;;9.68;6.68;;;12.00;99.90;;;;;;6271737;22;20000;-77
2022/10/22 00:21:35;;;;;;;10.13;6.13;;;12.00;99.90;;;;;;6269896;22;20424;-77
2022/10/22 00:24:01;;;;;;;7.15;6.25;;;12.10;99.90;;;;;;6271324;22;20000;-77
2022/10/22 00:26:27;;;;;;;8.48;6.78;;;12.10;99.90;;;;;;6271131;22;20054;-77
2022/10/22 00:28:53;;;;;;;8.57;7.00;;;11.90;99.90;;;;;;6271498;22;20000;-77
2022/10/22 00:31:19;;;;;;;8.30;6.40;;;12.10;99.90;;;;;;6271789;22;20406;-77
2022/10/22 00:33:46;;;;;;;7.30;6.60;;;12.10;99.90;;;;;;6271271;22;19995;-77
2022/10/22 00:36:13;;;;;;;11.05;6.50;;;12.10;99.90;;;;;;6270188;22;20011;-77
2022/10/22 00:38:39;;;;;;;7.45;6.72;;;12.10;99.90;;;;;;6269558;22;20416;-77
2022/10/22 00:41:05;;;;;;;10.52;6.57;;;12.10;99.90;;;;;;6271805;22;20050;-77
2022/10/22 00:43:30;;;;;;;11.63;6.53;;;12.00;99.90;;;;;;6271728;22;20000;-77
2022/10/22 00:45:56;;;;;;;8.52;7.13;;;12.10;99.90;;;;;;6270945;22;20003;-77
2022/10/22 00:48:25;;;;;;;9.20;6.90;;;13.30;99.90;;;;;;6271470;22;20409;-77
2022/10/22 00:51:03;;;;;;;12.27;7.22;;;12.20;99.90;;;;;;6270794;22;20274;-77
2022/10/22 00:53:33;;;;;;;11.35;7.65;;;12.20;99.90;;;;;;6270807;22;20000;-77
2022/10/22 00:56:00;;;;;;;15.07;8.02;;;12.20;99.90;;;;;;6268949;22;19999;-77
2022/10/22 00:58:29;;;;;;;15.07;8.65;;;12.20;99.90;;;;;;6272034;22;20000;-77
2022/10/22 01:00:56;;;;;;;8.98;7.88;;;12.20;99.90;;;;;;6273107;22;20016;-77
2022/10/22 01:03:22;;;;;;;10.20;8.02;;;12.30;99.90;;;;;;6272956;22;20004;-77
2022/10/22 01:05:56;;;;;;;15.57;7.75;;;12.30;99.90;;;;;;6273064;22;20000;-77
2022/10/22 01:08:26;;;;;;;15.18;8.07;;;12.10;99.90;;;;;;6272034;22;20071;-77
2022/10/22 01:11:09;;;;;;;11.85;8.15;;;12.30;99.90;;;;;;6273013;22;20000;-77
2022/10/22 01:13:56;;;;;;;10.32;7.40;;;12.20;99.90;;;;;;6273390;22;20541;-77
2022/10/22 01:16:44;;;;;;;9.05;7.72;;;12.30;99.90;;;;;;6273387;22;19996;-77
2022/10/22 01:19:31;;;;;;;15.77;9.25;;;12.30;99.90;;;;;;6273444;22;19999;-77
2022/10/22 01:22:16;;;;;;;10.48;8.73;;;12.10;99.90;;;;;;6271364;22;20401;-77
2022/10/22 01:25:02;;;;;;;13.98;8.57;;;12.30;99.90;;;;;;6270786;22;20006;-77
2022/10/22 01:27:38;;;;;;;9.05;7.45;;;13.50;99.90;;;;;;6271544;22;20015;-77
2022/10/22 01:30:06;;;;;;;11.27;7.03;;;12.30;99.90;;;;;;6271595;22;20015;-77
2022/10/22 01:32:45;;;;;;;13.63;8.75;;;12.20;99.90;;;;;;6273237;22;20004;-77
2022/10/22 01:35:14;;;;;;;22.13;8.70;;;12.10;99.90;;;;;;6273189;22;20443;-76
2022/10/22 01:37:50;;;;;;;12.63;8.75;;;12.00;99.90;;;;;;6272411;22;20004;-77
2022/10/22 01:40:18;;;;;;;13.32;9.15;;;11.90;99.90;;;;;;6273178;22;20734;-77
2022/10/22 01:43:00;;;;;;;14.80;8.95;;;11.90;99.90;;;;;;6273134;22;20008;-77
2022/10/22 01:45:28;;;;;;;12.25;8.43;;;11.80;99.90;;;;;;6273237;22;20094;-77
2022/10/22 01:48:19;;;;;;;14.18;9.30;;;11.90;99.90;;;;;;6272852;22;20007;-77
2022/10/22 01:51:12;;;;;;;13.00;11.05;;;11.80;99.90;;;;;;6271407;22;20569;-75
2022/10/22 01:54:00;;;;;;;13.18;10.35;;;11.70;99.90;;;;;;6272120;22;20145;-76
2022/10/22 01:56:47;;;;;;;13.27;8.23;;;11.70;99.90;;;;;;6256788;22;20097;-75
2022/10/22 01:59:34;;;;;;;13.18;8.60;;;11.70;99.90;;;;;;6273188;22;20004;-76
2022/10/22 02:02:23;;;;;;;12.00;9.30;;;11.80;99.90;;;;;;6272869;22;20003;-75
2022/10/22 02:04:57;;;;;;;15.02;11.10;;;11.60;99.90;;;;;;6272884;22;20045;-76
2022/10/22 02:07:27;;;;;;;13.27;10.35;;;11.60;99.90;;;;;;6272558;22;20027;-76
2022/10/22 02:09:55;;;;;;;12.18;9.35;;;12.50;99.90;;;;;;6272669;22;20034;-76
2022/10/22 02:12:22;;;;;;;11.95;9.45;;;11.50;99.90;;;;;;6273097;22;20428;-76
2022/10/22 02:14:49;;;;;;;14.02;9.48;;;11.30;99.90;;;;;;6272620;22;20006;-75
2022/10/22 02:17:18;;;;;;;12.77;10.40;;;11.50;99.90;;;;;;6271029;22;20287;-76
2022/10/22 02:19:57;;;;;;;11.45;10.23;;;11.40;99.90;;;;;;6272639;22;20053;-75
2022/10/22 02:22:24;;;;;;;16.95;11.80;;;11.40;99.90;;;;;;6270649;22;19996;-76
2022/10/22 02:24:50;;;;;;;17.73;9.32;;;11.40;99.90;;;;;;6272543;22;20056;-76
2022/10/22 02:27:21;;;;;;;20.88;14.23;;;11.30;99.90;;;;;;6272320;22;20363;-76
2022/10/22 02:29:54;;;;;;;16.25;12.00;;;11.40;99.90;;;;;;6272577;22;20007;-76
2022/10/22 02:32:26;;;;;;;15.23;11.32;;;11.40;99.90;;;;;;6272584;22;20091;-76
2022/10/22 02:34:54;;;;;;;16.67;12.77;;;11.50;99.90;;;;;;6272532;22;20448;-76
2022/10/22 02:37:20;;;;;;;17.00;12.18;;;11.40;99.90;;;;;;6271838;22;20007;-76
2022/10/22 02:39:46;;;;;;;16.63;13.20;;;11.40;99.90;;;;;;6270862;22;20082;-76
2022/10/22 02:42:12;;;;;;;18.83;13.00;;;11.60;99.90;;;;;;6272610;22;20023;-76
2022/10/22 02:44:37;;;;;;;17.52;13.18;;;11.40;99.90;;;;;;6272319;22;20318;-76
2022/10/22 02:47:03;;;;;;;24.40;14.27;;;11.50;99.90;;;;;;6272620;22;20111;-76
2022/10/22 02:49:29;;;;;;;22.17;14.27;;;11.40;99.90;;;;;;6272227;22;20007;-76
2022/10/22 02:51:54;;;;;;;19.00;12.63;;;11.50;99.90;;;;;;6272197;22;20000;-76
2022/10/22 02:54:20;;;;;;;18.88;14.50;;;11.50;99.90;;;;;;6272320;22;20061;-76
2022/10/22 02:56:45;;;;;;;21.17;14.45;;;11.40;99.90;;;;;;6271917;22;20095;-76
2022/10/22 02:59:11;;;;;;;22.55;13.65;;;11.40;99.90;;;;;;6272468;22;20435;-76
2022/10/22 03:01:36;;;;;;;28.38;15.70;;;12.90;99.90;;;;;;6272192;22;20023;-76
2022/10/22 03:04:02;;;;;;;23.55;15.57;;;11.40;99.90;;;;;;6271363;22;20010;-76
2022/10/22 03:06:28;;;;;;;20.38;14.68;;;11.50;99.90;;;;;;6272159;22;20007;-76
2022/10/22 03:08:53;;;;;;;18.65;14.13;;;11.50;99.90;;;;;;6271957;22;20003;-76
2022/10/22 03:11:19;;;;;;;21.23;15.23;;;11.30;99.90;;;;;;6272255;22;20004;-76
2022/10/22 03:13:44;;;;;;;21.05;14.60;;;11.50;99.90;;;;;;6272088;22;20004;-76
2022/10/22 03:16:10;;;;;;;21.95;15.55;;;;;;;;;;6272380;22;20069;-76
2022/10/22 03:18:36;;;;;;;19.10;13.10;;;11.60;99.90;;;;;;6271659;22;20473;-76
2022/10/22 03:21:37;;;;;;;18.25;13.63;;;11.90;99.90;;;;;;6272459;22;20016;-76
2022/10/22 03:24:08;;;;;;;15.68;11.55;;;11.50;99.90;;;;;;6251160;22;20033;-76
2022/10/22 03:26:35;;;;;;;17.83;12.20;;;11.50;99.90;;;;;;6272118;22;20008;-75
2022/10/22 03:29:01;;;;;;;20.77;12.48;;;13.20;99.90;;;;;;6272058;22;20366;-76
2022/10/22 03:31:27;;;;;;;12.90;10.90;;;11.40;99.90;;;;;;6272115;22;20086;-76
2022/10/22 03:33:52;;;;;;;23.92;11.15;;;11.40;99.90;;;;;;6269647;22;20088;-76
2022/10/22 03:36:18;;;;;;;19.70;10.57;;;11.40;99.90;;;;;;6271650;22;20004;-76
2022/10/22 03:38:43;;;;;;;15.35;11.57;;;11.40;99.90;;;;;;6271775;22;19999;-76
2022/10/22 03:41:09;;;;;;;18.90;10.75;;;11.40;99.90;;;;;;6271933;22;20389;-76
2022/10/22 03:43:37;;;;;;;23.63;12.23;;;11.40;99.90;;;;;;6272102;22;20085;-76
2022/10/22 03:46:03;;;;;;;16.33;10.20;;;11.40;99.90;;;;;;6270276;22;20137;-76
2022/10/22 03:48:29;;;;;;;19.15;11.18;;;11.20;99.90;;;;;;6271099;22;20039;-76
2022/10/22 03:50:54;;;;;;;12.60;9.75;;;11.90;99.90;;;;;;6270033;22;20003;-76
2022/10/22 03:53:20;;;;;;;11.23;9.43;;;11.30;99.90;;;;;;6271677;22;20008;-76
2022/10/22 03:55:45;;;;;;;14.40;9.82;;;11.20;99.90;;;;;;6271709;22;20006;-76
2022/10/22 03:58:11;;;;;;;18.38;8.90;;;11.30;99.90;;;;;;6272013;22;19999;-76
2022/10/22 04:00:37;;;;;;;16.98;8.73;;;11.30;99.90;;;;;;6269938;22;20011;-76
2022/10/22 04:03:02;;;;;;;12.13;8.50;;;11.30;99.90;;;;;;6271529;22;20095;-76
2022/10/22 04:05:28;;;;;;;14.60;8.73;;;11.40;99.90;;;;;;6271598;22;20074;-77
2022/10/22 04:07:53;;;;;;;14.30;8.55;;;11.60;99.90;;;;;;6271496;22;20007;-76
2022/10/22 04:10:19;;;;;;;13.40;9.07;;;11.70;99.90;;;;;;6271721;22;20011;-76
2022/10/22 04:12:48;;;;;;;12.93;8.45;;;11.80;99.90;;;;;;6269773;22;20011;-77
2022/10/22 04:15:13;;;;;;;14.77;9.05;;;11.90;99.90;;;;;;6270015;22;20007;-77
2022/10/22 04:17:39;;;;;;;15.02;8.18;;;12.10;99.90;;;;;;6270401;22;20309;-76
2022/10/22 04:20:05;;;;;;;17.17;11.20;;;12.10;99.90;;;;;;6271558;22;19999;-76
2022/10/22 04:22:34;;;;;;;16.10;10.15;;;12.20;99.90;;;;;;6271665;22;20049;-76
2022/10/22 04:25:00;;;;;;;16.30;9.20;;;12.30;99.90;;;;;;6271412;22;19996;-76
2022/10/22 04:27:32;;;;;;;14.40;8.82;;;12.20;99.90;;;;;;6270250;22;20061;-76
2022/10/22 04:29:57;;;;;;;17.77;9.77;;;12.20;99.90;;;;;;6271408;22;20487;-76
2022/10/22 04:32:26;;;;;;;16.92;9.60;;;12.20;99.90;;;;;;6270936;22;19995;-76
2022/10/22 04:34:52;;;;;;;18.50;11.25;;;12.10;99.90;;;;;;6270545;22;20003;-76
2022/10/22 04:37:18;;;;;;;16.48;9.77;;;12.30;99.90;;;;;;6268765;22;20490;-76
2022/10/22 04:39:43;;;;;;;13.27;10.30;;;12.80;99.90;;;;;;6270293;22;19996;-76
2022/10/22 04:42:09;;;;;;;15.95;9.38;;;12.20;99.90;;;;;;6271612;22;20329;-76
2022/10/22 04:44:35;;;;;;;15.43;8.43;;;12.20;99.90;;;;;;6271126;22;20011;-76
2022/10/22 04:47:00;;;;;;;15.52;9.90;;;12.20;99.90;;;;;;6268849;22;20004;-77
2022/10/22 04:49:26;;;;;;;16.90;10.27;;;12.20;99.90;;;;;;6271363;22;20000;-76
2022/10/22 04:51:52;;;;;;;15.82;9.52;;;12.30;99.90;;;;;;6270999;22;20035;-77
2022/10/22 04:54:18;;;;;;;16.13;11.15;;;;;;;;;;6271273;22;20289;-76
2022/10/22 04:56:43;;;;;;;12.40;9.18;;;11.80;99.90;;;;;;6270412;22;20058;-76
2022/10/22 04:59:11;;;;;;;19.23;8.90;;;12.30;99.90;;;;;;6271104;22;19996;-76
2022/10/22 05:01:39;;;;;;;18.95;11.55;;;12.30;99.90;;;;;;6269717;22;20004;-76
2022/10/22 05:04:07;;;;;;;18.10;10.25;;;12.40;99.90;;;;;;6271697;22;20008;-76
2022/10/22 05:06:34;;;;;;;14.30;11.38;;;13.20;99.90;;;;;;6271326;22;20000;-76
2022/10/22 05:09:03;;;;;;;14.15;10.48;;;12.40;99.90;;;;;;6271083;22;19996;-76
2022/10/22 05:11:32;;;;;;;16.27;8.82;;;12.40;99.90;;;;;;6271333;22;20401;-76
2022/10/22 05:13:59;;;;;;;20.23;10.38;;;12.30;99.90;;;;;;6271602;22;20010;-76
2022/10/22 05:16:26;;;;;;;14.18;10.07;;;12.40;99.90;;;;;;6270785;22;20122;-76
2022/10/22 05:18:52;;;;;;;16.67;9.95;;;12.30;99.90;;;;;;6271109;22;20306;-76
2022/10/22 05:21:19;;;;;;;14.18;9.60;;;12.30;99.90;;;;;;6271511;22;19996;-76
2022/10/22 05:23:47;;;;;;;16.25;9.98;;;12.40;99.90;;;;;;6271005;22;20023;-76
2022/10/22 05:26:14;;;;;;;15.65;9.98;;;10.10;99.90;;;;;;6271241;22;20396;-76
2022/10/22 05:28:40;;;;;;;15.73;9.73;;;12.10;99.90;;;;;;6272806;22;20011;-76
2022/10/22 05:31:07;;;;;;;19.67;9.75;;;12.30;99.90;;;;;;6272787;22;20050;-76
2022/10/22 05:33:34;;;;;;;11.98;8.82;;;12.20;99.90;;;;;;6272876;22;20004;-76
2022/10/22 05:36:01;;;;;;;16.63;8.98;;;12.30;99.90;;;;;;6272686;22;20002;-76
2022/10/22 05:38:26;;;;;;;17.67;9.82;;;12.30;99.90;;;;;;6271133;22;20010;-76
2022/10/22 05:41:02;;;;;;;15.25;8.52;;;12.20;99.90;;;;;;6272835;22;20024;-76
2022/10/22 05:43:28;;;;;;;15.70;12.63;;;12.30;99.90;;;;;;6272731;22;20053;-76
2022/10/22 05:45:54;;;;;;;15.63;9.13;;;12.10;99.90;;;;;;6272705;22;19996;-76
2022/10/22 05:48:19;;;;;;;21.98;9.90;;;12.20;99.90;;;;;;6273067;22;19996;-76
2022/10/22 05:50:49;;;;;;;14.80;8.88;;;12.20;99.90;;;;;;6272504;22;20007;-76
2022/10/22 05:53:15;;;;;;;14.35;9.05;;;12.20;99.90;;;;;;6272920;22;20011;-77
2022/10/22 05:55:41;;;;;;;15.95;10.23;;;12.20;99.90;;;;;;6272501;22;20053;-76
2022/10/22 05:58:07;;;;;;;16.17;10.80;;;12.30;99.90;;;;;;6272588;22;20000;-77
2022/10/22 06:00:33;;;;;;;21.15;10.60;;;12.20;99.90;;;;;;6273309;22;20240;-76
2022/10/22 06:02:59;;;;;;;17.30;9.07;;;12.10;99.90;;;;;;6272530;22;20038;-76
2022/10/22 06:05:24;;;;;;;15.13;10.15;;;12.20;99.90;;;;;;6272498;22;20000;-77
2022/10/22 06:07:50;;;;;;;15.85;10.38;;;12.30;99.90;;;;;;6272364;22;20012;-77
2022/10/22 06:10:18;;;;;;;13.38;10.30;;;12.20;99.90;;;;;;6272836;22;20078;-76
2022/10/22 06:12:44;;;;;;;20.73;10.50;;;12.30;99.90;;;;;;6270249;22;19996;-77
2022/10/22 06:15:16;;;;;;;18.35;9.30;;;12.20;99.90;;;;;;6272954;22;20006;-77
2022/10/22 06:17:43;;;;;;;17.30;8.77;;;12.40;99.90;;;;;;6270308;22;20004;-77
2022/10/22 06:20:10;;;;;;;16.20;9.07;;;12.50;99.90;;;;;;6272672;22;20027;-77
2022/10/22 06:22:35;;;;;;;18.17;10.57;;;12.50;99.90;;;;;;6270935;22;20428;-76
2022/10/22 06:25:01;;;;;;;20.20;10.20;;;12.50;99.90;;;;;;6272476;22;20045;-77
2022/10/22 06:27:26;;;;;;;16.17;10.27;;;12.60;99.90;;;;;;6270153;22;20023;-77
2022/10/22 06:29:52;;;;;;;17.42;9.73;;;12.70;99.90;;;;;;6272436;22;19992;-77
2022/10/22 06:32:18;;;;;;;19.02;11.25;;;12.70;99.90;;;;;;6270974;22;20004;-77
2022/10/22 06:34:43;;;;;;;17.00;9.50;;;12.70;99.90;;;;;;6272078;22;19999;-77
2022/10/22 06:37:09;;;;;;;14.00;10.02;;;12.70;99.90;;;;;;6273000;22;20007;-76
2022/10/22 06:39:35;;;;;;;17.80;9.55;;;12.80;99.90;;;;;;6272385;22;20428;-77
2022/10/22 06:42:00;;;;;;;15.27;8.93;;;12.80;99.90;;;;;;6271752;22;20023;-77
2022/10/22 06:44:26;;;;;;;18.75;9.68;;;12.80;99.90;;;;;;6272491;22;20004;-76
2022/10/22 06:46:52;;;;;;;15.73;9.60;;;12.80;99.90;;;;;;6270840;22;20094;-77
2022/10/22 06:49:19;;;;;;;15.38;8.80;;;12.50;99.90;;;;;;6272515;22;20022;-77
2022/10/22 06:51:48;;;;;;;17.58;10.20;;;12.80;99.90;;;;;;6272260;22;20000;-78
2022/10/22 06:54:13;;;;;;;14.27;9.25;;;12.70;99.90;;;;;;6272664;22;20004;-77
2022/10/22 06:56:39;;;;;;;14.15;8.45;;;12.80;99.90;;;;;;6271235;22;20018;-77
2022/10/22 06:59:04;;;;;;;13.77;9.00;;;12.70;99.90;;;;;;6270860;22;20011;-78
2022/10/22 07:01:32;;;;;;;13.75;8.43;;;12.80;99.90;;;;;;6272440;22;19999;-77
2022/10/22 07:03:58;;;;;;;11.38;8.25;;;12.60;99.90;;;;;;6271926;22;20079;-78
2022/10/22 07:06:25;;;;;;;36.47;9.82;;;13.90;99.90;;;;;;6272140;22;20042;-78
2022/10/22 07:08:52;;;;;;;10.40;8.20;;;13.90;99.90;;;;;;6271774;22;20071;-78
2022/10/22 07:11:20;;;;;;;16.92;9.13;;;12.90;99.90;;;;;;6271816;22;20368;-78
2022/10/22 07:13:46;;;;;;;14.75;9.07;;;13.00;99.90;;;;;;6270163;22;20000;-77
2022/10/22 07:16:12;;;;;;;22.58;9.68;;;13.70;99.90;;;;;;6272409;22;20066;-78
2022/10/22 07:18:39;;;;;;;17.20;9.23;;;13.30;99.90;;;;;;6271938;22;20010;-78
2022/10/22 07:21:06;;;;;;;20.02;10.23;;;13.30;99.90;;;;;;6272190;22;20049;-78
2022/10/22 07:23:32;;;;;;;14.65;8.27;;;13.40;99.90;;;;;;6271981;22;20034;-78
2022/10/22 07:25:58;;;;;;;17.70;9.25;;;13.40;99.90;;;;;;6271016;22;20508;-77
2022/10/22 07:28:24;;;;;;;15.70;8.90;;;13.50;99.90;;;;;;6272053;22;20004;-78
2022/10/22 07:30:50;;;;;;;11.23;6.95;;;13.60;99.90;;;;;;6271815;22;20004;-77
2022/10/22 07:33:16;;;;;;;13.57;8.15;;;14.10;99.90;;;;;;6272106;22;20325;-78
2022/10/22 07:35:41;;;;;;;13.93;7.57;;;13.70;99.90;;;;;;6271779;22;20004;-78
2022/10/22 07:38:07;;;;;;;15.93;8.52;;;13.70;99.90;;;;;;6272165;22;20539;-78
2022/10/22 07:40:34;;;;;;;17.85;8.55;;;13.80;99.90;;;;;;6271582;22;19991;-76
2022/10/22 07:43:00;;;;;;;14.63;7.28;;;13.90;99.90;;;;;;6272297;22;20137;-76
2022/10/22 07:45:25;;;;;;;15.38;8.05;;;14.00;99.90;;;;;;6272821;22;20042;-76
2022/10/22 07:47:51;;;;;;;16.52;7.63;;;14.10;99.90;;;;;;6272414;22;20023;-75
2022/10/22 07:50:17;;;;;;;11.52;7.75;;;14.00;99.90;;;;;;6272193;22;20007;-75
2022/10/22 07:52:42;;;;;;;12.88;6.75;;;14.00;99.90;;;;;;6272156;22;19996;-75
2022/10/22 07:55:08;;;;;;;15.68;7.68;;;14.10;99.90;;;;;;6271999;22;20003;-75
2022/10/22 07:57:36;;;;;;;14.75;6.93;;;14.00;99.90;;;;;;6270573;22;20007;-75
2022/10/22 08:00:04;;;;;;;12.77;6.95;;;13.90;99.90;;;;;;6272420;22;20911;-75
2022/10/22 08:02:29;;;;;;;16.08;7.03;;;13.90;99.90;;;;;;6272220;22;20003;-75
2022/10/22 08:04:55;;;;;;;13.40;6.78;;;14.00;99.90;;;;;;6271983;22;20062;-75
2022/10/22 08:07:22;;;;;;;12.38;7.13;;;14.00;99.90;;;;;;6272353;22;20065;-75
2022/10/22 08:09:47;;;;;;;19.08;7.30;;;14.20;99.90;;;;;;6271580;22;20376;-76
2022/10/22 08:12:13;;;;;;;15.48;6.63;;;14.30;99.90;;;;;;6272710;22;20038;-75
2022/10/22 08:14:38;;;;;;;16.02;7.20;;;14.40;99.90;;;;;;6272063;22;20083;-76
2022/10/22 08:17:04;;;;;;;12.30;6.72;;;14.70;99.90;;;;;;6272178;22;20050;-74
2022/10/22 08:19:31;;;;;;;15.75;6.03;;;14.50;99.90;;;;;;6272097;22;19999;-74
2022/10/22 08:21:57;;;;;;;12.95;6.03;;;14.90;99.90;;;;;;6272001;22;20004;-74
2022/10/22 08:24:23;;;;;;;14.38;7.43;;;15.00;99.90;;;;;;6271918;22;20083;-74
2022/10/22 08:26:48;;;;;;;12.75;5.53;;;15.10;99.90;;;;;;6271736;22;20087;-74
2022/10/22 08:29:14;;;;;;;21.60;6.50;;;15.20;99.90;;;;;;6272133;22;20074;-74
2022/10/22 08:31:39;;;;;;;16.92;5.63;;;15.20;99.90;;;;;;6271582;22;20004;-74
2022/10/22 08:34:07;;;;;;;13.50;5.03;;;15.30;99.90;;;;;;6271981;22;20392;-74
2022/10/22 08:36:32;;;;;;;13.77;4.38;;;15.40;99.90;;;;;;6271212;22;20337;-74
2022/10/22 08:38:58;;;;;;;10.27;4.20;;;15.30;99.90;;;;;;6271124;22;20006;-73
2022/10/22 08:41:24;;;;;;;6.13;3.88;;;15.50;99.90;;;;;;6271980;22;19999;-73
2022/10/22 08:43:55;;;;;;;11.98;4.35;;;15.60;99.90;;;;;;6271522;22;20050;-74
2022/10/22 08:46:52;;;;;;;9.32;3.95;;;15.50;99.90;;;;;;6273467;22;20142;-72
2022/10/22 08:49:21;;;;;;;11.02;5.47;;;15.60;99.90;;;;;;6271714;22;20279;-75
2022/10/22 08:51:47;;;;;;;10.43;3.75;;;15.70;99.90;;;;;;6271158;22;20035;-75
2022/10/22 08:54:22;;;;;;;9.88;3.72;;;15.70;99.90;;;;;;6271456;22;20007;-74
2022/10/22 08:57:03;;;;;;;13.60;3.92;;;15.50;99.90;;;;;;6271071;22;20331;-75
2022/10/22 08:59:37;;;;;;;9.10;3.28;;;15.90;99.90;;;;;;6271748;22;20004;-75
2022/10/22 09:02:13;;;;;;;11.43;3.40;;;16.00;99.90;;;;;;6272052;22;20154;-75
2022/10/22 09:04:49;;;;;;;11.38;3.10;;;15.90;99.90;;;;;;6272833;22;20405;-75
2022/10/22 09:07:14;;;;;;;11.60;3.25;;;16.00;99.90;;;;;;6272172;22;19996;-75
2022/10/22 09:09:47;;;;;;;10.60;3.53;;;15.80;99.90;;;;;;6272862;22;20126;-75
2022/10/22 09:12:15;;;;;;;13.95;3.30;;;15.90;99.90;;;;;;6273334;22;20003;-77
2022/10/22 09:14:41;;;;;;;9.73;3.00;;;16.00;99.90;;;;;;6273329;22;20000;-75
2022/10/22 09:17:35;;;;;;;9.23;3.00;;;16.00;99.90;;;;;;6273300;22;20079;-75
2022/10/22 09:20:45;;;;;;;7.68;2.63;;;15.90;99.90;;;;;;6273078;22;20027;-75
2022/10/22 09:23:32;;;;;;;8.85;2.60;;;15.90;99.90;;;;;;6273036;22;20082;-74
2022/10/22 09:25:58;;;;;;;12.20;3.35;;;15.90;99.90;;;;;;6272965;22;20003;-74
2022/10/22 09:28:24;;;;;;;7.88;3.05;;;15.80;99.90;;;;;;6273434;22;20016;-76
2022/10/22 09:30:50;;;;;;;9.20;2.55;;;17.00;99.90;;;;;;6272626;22;20413;-73
2022/10/22 09:33:27;;;;;;;6.03;2.33;;;15.80;99.90;;;;;;6273423;22;20053;-75
2022/10/22 09:36:02;;;;;;;8.35;2.58;;;15.80;99.90;;;;;;6272626;22;20433;-74
2022/10/22 09:38:30;;;;;;;6.00;2.08;;;15.90;99.90;;;;;;6273577;22;20337;-75
2022/10/22 09:40:58;;;;;;;9.45;2.50;;;15.90;99.90;;;;;;6273073;22;20080;-75
2022/10/22 09:43:26;;;;;;;6.05;2.08;;;15.90;99.90;;;;;;6273456;22;20022;-75
2022/10/22 09:46:03;;;;;;;7.95;2.55;;;16.60;99.90;;;;;;6273049;22;20305;-75
2022/10/22 09:48:36;;;;;;;10.90;2.67;;;15.90;99.90;;;;;;6271674;22;20018;-75
2022/10/22 09:51:21;;;;;;;7.28;2.33;;;15.90;99.90;;;;;;6272826;22;20000;-75
2022/10/22 09:53:59;;;;;;;7.75;2.55;;;16.10;99.90;;;;;;6272934;22;20079;-75
2022/10/22 09:56:27;;;;;;;11.15;2.95;;;16.20;99.90;;;;;;6273293;22;19999;-75
2022/10/22 09:58:56;;;;;;;10.90;2.97;;;16.20;99.90;;;;;;6272874;22;19996;-75
2022/10/22 10:01:26;;;;;;;13.02;2.42;;;16.90;99.90;;;;;;6273070;22;20071;-74
2022/10/22 10:03:52;;;;;;;12.55;3.17;;;16.40;99.90;;;;;;6272307;22;20003;-74
2022/10/22 10:06:20;;;;;;;12.35;3.65;;;16.50;99.90;;;;;;6272753;22;19995;-74
2022/10/22 10:08:46;;;;;;;11.80;2.80;;;16.50;99.90;;;;;;6272713;22;20062;-74
2022/10/22 10:11:30;;;;;;;7.82;3.30;;;16.60;99.90;;;;;;6272824;22;20004;-74
2022/10/22 10:14:04;;;;;;;6.68;3.00;;;16.70;99.90;;;;;;6272424;22;20008;-74
2022/10/22 10:17:21;;;;;;;10.50;3.45;;;16.60;99.90;;;;;;6271426;22;20011;-75
2022/10/22 10:20:14;;;;;;;10.07;2.92;;;16.70;99.90;;;;;;6148625;23;20017;-74
2022/10/22 10:22:45;;;;;;;9.90;2.63;;;16.60;99.90;;;;;;6149066;23;20213;-74
2022/10/22 10:25:26;;;;;;;8.88;3.75;;;16.60;99.90;;;;;;6149075;23;20001;-74
2022/10/22 10:28:13;;;;;;;10.63;3.53;;;16.60;99.90;;;;;;6148387;23;20541;-74
2022/10/22 10:30:53;;;;;;;7.88;2.95;;;16.70;99.90;;;;;;6149121;23;20002;-74
2022/10/22 10:33:27;;;;;;;9.98;3.42;;;16.50;99.90;;;;;;6149524;23;20085;-74
2022/10/22 10:36:11;;;;;;;7.22;3.70;;;16.60;99.90;;;;;;6149259;23;20092;-74
2022/10/22 10:38:54;;;;;;;6.43;3.55;;;16.70;99.90;;;;;;6149185;23;20032;-74
2022/10/22 10:41:35;;;;;;;13.18;3.78;;;16.60;99.90;;;;;;6149265;23;20015;-74
2022/10/22 10:44:13;;;;;;;12.07;3.88;;;16.70;99.90;;;;;;6148076;23;20057;-75
2022/10/22 10:47:03;;;;;;;13.70;3.92;;;17.00;99.90;;;;;;6148471;23;20105;-74
2022/10/22 10:49:33;;;;;;;12.20;3.95;;;16.80;99.90;;;;;;6148516;23;20439;-74
2022/10/22 10:52:15;;;;;;;10.35;3.53;;;16.90;99.90;;;;;;6123585;23;20012;-74
2022/10/22 10:54:41;;;;;;;12.00;4.65;;;17.00;99.90;;;;;;6271244;22;20000;-74
2022/10/22 10:57:36;;;;;;;6.20;3.58;;;16.30;99.90;;;;;;6272250;22;20000;-74
2022/10/22 11:00:14;;;;;;;14.88;4.78;;;17.10;99.90;;;;;;6272837;22;20008;-74
2022/10/22 11:02:44;;;;;;;12.68;4.20;;;17.20;99.90;;;;;;6272163;22;20422;-74
2022/10/22 11:05:43;;;;;;;11.65;3.42;;;19.70;99.90;;;;;;6273110;22;19999;-74
2022/10/22 11:08:35;;;;;;;9.07;4.95;;;17.40;99.90;;;;;;6272971;22;20008;-74
2022/10/22 11:11:03;;;;;;;10.60;3.22;;;17.40;99.90;;;;;;6272108;22;19999;-74
2022/10/22 11:13:49;;;;;;;11.23;3.40;;;17.40;99.90;;;;;;6273058;22;20080;-74
2022/10/22 11:16:26;;;;;;;11.38;3.40;;;17.40;99.90;;;;;;6272607;22;20061;-74
2022/10/22 11:19:08;;;;;;;10.05;3.63;;;17.40;99.90;;;;;;6270936;22;19999;-74
2022/10/22 11:21:51;;;;;;;9.60;3.08;;;17.60;99.90;;;;;;6271615;22;20004;-74
2022/10/22 11:24:38;;;;;;;7.78;2.50;;;17.60;99.90;;;;;;6269964;22;20393;-74
2022/10/22 11:27:05;;;;;;;8.75;2.60;;;17.70;99.90;;;;;;6272400;22;20015;-74
2022/10/22 11:29:42;;;;;;;9.18;2.83;;;17.80;99.90;;;;;;6272365;22;20448;-74
2022/10/22 11:32:14;;;;;;;11.23;2.90;;;17.60;99.90;;;;;;6272253;22;20007;-74
2022/10/22 11:34:45;;;;;;;16.65;3.25;;;18.00;99.90;;;;;;6272414;22;20007;-74
2022/10/22 11:37:13;;;;;;;9.93;2.33;;;17.90;99.90;;;;;;6271144;22;20487;-74
2022/10/22 11:39:52;;;;;;;8.82;2.60;;;18.00;99.90;;;;;;6272224;22;19996;-74
2022/10/22 11:42:20;;;;;;;8.57;2.50;;;18.10;99.90;;;;;;6270978;22;20487;-74
2022/10/22 11:44:49;;;;;;;8.50;1.83;;;18.10;99.90;;;;;;6271963;22;20057;-74
2022/10/22 11:47:24;;;;;;;5.40;1.83;;;18.00;99.90;;;;;;6271992;22;20071;-74
2022/10/22 11:50:17;;;;;;;8.32;2.83;;;18.00;99.90;;;;;;6270445;22;20433;-73
2022/10/22 11:53:03;;;;;;;10.87;3.70;;;18.10;99.90;;;;;;6271642;22;20071;-73
2022/10/22 11:56:09;;;;;;;6.68;2.78;;;18.10;99.90;;;;;;6272381;22;20003;-73
2022/10/22 11:58:38;;;;;;;12.65;2.92;;;18.10;99.90;;;;;;6257167;22;20803;-74
2022/10/22 12:01:06;;;;;;;9.65;2.78;;;18.20;99.90;;;;;;6272352;22;20010;-70
2022/10/22 12:03:32;;;;;;;13.50;2.58;;;19.30;99.90;;;;;;6272113;22;20551;-74
2022/10/22 12:06:03;;;;;;;7.95;2.58;;;18.40;99.90;;;;;;6271906;22;20003;-75
2022/10/22 12:08:31;;;;;;;12.27;2.35;;;18.40;99.90;;;;;;6272159;22;20000;-74
2022/10/22 12:11:03;;;;;;;12.88;2.35;;;18.40;99.90;;;;;;6271864;22;20003;-73
2022/10/22 12:14:06;;;;;;;12.55;2.65;;;18.90;99.90;;;;;;6272291;22;20007;-74
2022/10/22 12:16:31;;;;;;;9.15;2.85;;;18.30;99.90;;;;;;6270827;22;20000;-74
2022/10/22 12:19:15;;;;;;;14.85;2.20;;;18.40;99.90;;;;;;6271895;22;19996;-75
2022/10/22 12:21:43;;;;;;;10.65;2.28;;;18.30;99.90;;;;;;6271558;22;20047;-73
2022/10/22 12:24:21;;;;;;;6.10;1.73;;;18.30;99.90;;;;;;6271583;22;20066;-73
2022/10/22 12:26:48;;;;;;;5.00;1.58;;;18.30;99.90;;;;;;6271421;22;20051;-73
2022/10/22 12:29:15;;;;;;;8.80;2.25;;;18.40;99.90;;;;;;6270025;22;20067;-73
2022/10/22 12:31:43;;;;;;;10.00;2.22;;;18.20;99.90;;;;;;6270658;22;20004;-73
2022/10/22 12:34:21;;;;;;;10.95;2.78;;;18.20;99.90;;;;;;6271919;22;19996;-73
2022/10/22 12:36:48;;;;;;;12.73;2.35;;;18.10;99.90;;;;;;6270994;22;20464;-73
2022/10/22 12:39:17;;;;;;;10.13;2.30;;;18.10;99.90;;;;;;6273740;22;20010;-73
2022/10/22 12:41:43;;;;;;;11.75;2.85;;;18.00;99.90;;;;;;6273165;22;20075;-73
2022/10/22 12:44:13;;;;;;;9.40;2.50;;;18.00;99.90;;;;;;6271576;22;20007;-72
2022/10/22 12:46:39;;;;;;;11.98;2.53;;;17.90;99.90;;;;;;6273333;22;20018;-72
2022/10/22 12:49:12;;;;;;;12.82;2.45;;;18.00;99.90;;;;;;6272322;22;20010;-72
2022/10/22 12:51:38;;;;;;;11.43;2.28;;;18.00;99.90;;;;;;6273695;22;19991;-72
2022/10/22 12:54:12;;;;;;;13.45;2.05;;;19.20;99.90;;;;;;6273977;22;19996;-72
2022/10/22 12:56:37;;;;;;;8.52;2.25;;;18.20;99.90;;;;;;6273497;22;20023;-72